Yuendumu, Australia
Current Conditions -  °F | °C
As of 3:00 PM on Monday 24 Nov 2014 (Local Time) from YBAS Reporting Station
Broken Clouds Broken Clouds  
Wind Chill: 95°   Ceiling: 23000
Heat Index: 95°   Visibility: 6mi
Dew Point: 55°   Wind: 8mph
Humidity: 26%   Direction: 240°WSW
Pressure: NA   Gusts: NA
Location:  22.26°S, 131.8°E
Report Text: YBAS 240600Z 24007KT 9999 FEW070 SCT180 BKN230 35/13 Q1111
Loading
Personal Weather Stations






























Interactive Weather Map New forecast layout! Learn more

10-Day Weather Forecast

Advertisements
Track Severe Weather on mobile